sensor_id;sensor_type;location;lat;lon;timestamp;pressure;altitude;pressure_sealevel;temperature;humidity
25156;BME280;21913;52.456;13.634;2023-07-02T14:11:34;99657.22;;;24.03;36.03
25156;BME280;21913;52.456;13.634;2023-07-02T14:16:37;99647.91;;;26.12;33.26
25156;BME280;21913;52.456;13.634;2023-07-02T14:21:39;99651.19;;;22.80;37.98
25156;BME280;21913;52.456;13.634;2023-07-02T14:26:40;99645.44;;;29.00;27.66
25156;BME280;71253;51.496;7.606;2023-07-02T14:31:42;99657.97;;;27.41;30.10
25156;BME280;71253;51.496;7.606;2023-07-02T14:36:44;99649.13;;;22.22;39.72
25156;BME280;71253;51.496;7.606;2023-07-02T14:50:11;99633.69;;;22.48;40.43
25156;BME280;71253;51.496;7.606;2023-07-02T14:55:18;99627.50;;;23.71;37.64
25156;BME280;71253;51.496;7.606;2023-07-02T15:00:20;99621.72;;;24.07;38.09
25156;BME280;71253;51.496;7.606;2023-07-02T15:05:22;99620.88;;;23.92;36.26
25156;BME280;71253;51.496;7.606;2023-07-02T15:10:23;99613.22;;;25.38;36.25
25156;BME280;71253;51.496;7.606;2023-07-02T15:15:26;99612.72;;;23.52;37.21
25156;BME280;71253;51.496;7.606;2023-07-02T15:20:29;99616.78;;;23.14;40.15
25156;BME280;71253;51.496;7.606;2023-07-02T15:25:32;99614.81;;;22.40;40.13
25156;BME280;71253;51.496;7.606;2023-07-02T15:30:38;99620.91;;;21.75;43.14
25156;BME280;71253;51.496;7.606;2023-07-02T15:35:41;99622.59;;;24.36;38.51
25156;BME280;71253;51.496;7.606;2023-07-02T15:40:46;99621.22;;;23.13;38.03
25156;BME280;71253;51.496;7.606;2023-07-02T15:45:53;99614.69;;;22.10;42.55
25156;BME280;71253;51.496;7.606;2023-07-02T15:50:54;99618.66;;;22.01;42.63
25156;BME280;71253;51.496;7.606;2023-07-02T15:55:57;99623.03;;;21.85;42.95
25156;BME280;71253;51.496;7.606;2023-07-02T16:01:16;99625.81;;;23.09;40.94
25156;BME280;71253;51.496;7.606;2023-07-02T16:06:20;99617.75;;;21.51;44.03
25156;BME280;71253;51.496;7.606;2023-07-02T16:11:28;99619.50;;;21.86;42.14
25156;BME280;71253;51.496;7.606;2023-07-02T16:16:40;99625.75;;;21.33;44.77
25156;BME280;71253;51.496;7.606;2023-07-02T16:21:44;99624.69;;;21.00;45.73
25156;BME280;71253;51.496;7.606;2023-07-02T16:26:53;99626.34;;;20.67;44.95
25156;BME280;71253;51.496;7.606;2023-07-02T16:31:58;99607.59;;;20.56;46.74
25156;BME280;71253;51.496;7.606;2023-07-02T16:37:03;99613.94;;;20.52;45.15
25156;BME280;71253;51.496;7.606;2023-07-02T16:42:07;99621.34;;;20.42;46.71
25156;BME280;71253;51.496;7.606;2023-07-02T16:47:11;99619.22;;;20.69;45.05
25156;BME280;71253;51.496;7.606;2023-07-02T16:52:14;99617.34;;;20.90;44.58
25156;BME280;71253;51.496;7.606;2023-07-02T16:57:17;99610.69;;;21.00;43.51
25156;BME280;71253;51.496;7.606;2023-07-02T17:02:20;99619.81;;;20.19;46.74
25156;BME280;71253;51.496;7.606;2023-07-02T17:07:26;99627.34;;;19.87;46.01
25156;BME280;71253;51.496;7.606;2023-07-02T17:12:29;99617.78;;;19.86;46.85
25156;BME280;71253;51.496;7.606;2023-07-02T17:17:31;99621.22;;;19.68;46.88
25156;BME280;71253;51.496;7.606;2023-07-02T17:22:33;99616.53;;;19.54;47.18
25156;BME280;71253;51.496;7.606;2023-07-02T17:27:39;99617.94;;;19.42;48.31
25156;BME280;71253;51.496;7.606;2023-07-02T17:32:40;99614.75;;;19.34;48.30
25156;BME280;71253;51.496;7.606;2023-07-02T17:37:43;99610.13;;;19.41;50.00
25156;BME280;71253;51.496;7.606;2023-07-02T17:42:48;99616.22;;;19.41;48.20
25156;BME280;71253;51.496;7.606;2023-07-02T17:47:52;99614.50;;;19.40;48.30
25156;BME280;71253;51.496;7.606;2023-07-02T17:52:54;99601.34;;;19.42;47.33
25156;BME280;71253;51.496;7.606;2023-07-02T17:57:56;99603.56;;;19.31;47.25
25156;BME280;71253;51.496;7.606;2023-07-02T18:02:58;99599.19;;;19.31;47.52
25156;BME280;71253;51.496;7.606;2023-07-02T18:07:59;99597.47;;;19.30;49.67
25156;BME280;71253;51.496;7.606;2023-07-02T18:13:03;99592.41;;;19.05;48.61
25156;BME280;71253;51.496;7.606;2023-07-02T18:18:06;99589.56;;;18.89;48.84
25156;BME280;71253;51.496;7.606;2023-07-02T18:23:07;99589.81;;;18.83;49.37
25156;BME280;71253;51.496;7.606;2023-07-02T18:28:13;99593.66;;;18.75;50.06
25156;BME280;71253;51.496;7.606;2023-07-02T18:33:18;99594.47;;;18.53;49.88
25156;BME280;71253;51.496;7.606;2023-07-02T18:38:23;99594.19;;;18.39;50.73
25156;BME280;71253;51.496;7.606;2023-07-02T18:43:26;99591.84;;;18.31;51.38
25156;BME280;71253;51.496;7.606;2023-07-02T18:48:28;99593.84;;;18.25;51.72
25156;BME280;71253;51.496;7.606;2023-07-02T18:53:33;99589.94;;;18.13;52.99
25156;BME280;71253;51.496;7.606;2023-07-02T18:58:36;99586.13;;;17.98;54.31
25156;BME280;71253;51.496;7.606;2023-07-02T19:03:38;99589.16;;;17.87;54.10
25156;BME280;71253;51.496;7.606;2023-07-02T19:08:41;99584.66;;;17.91;54.69
25156;BME280;71253;51.496;7.606;2023-07-02T19:13:43;99577.13;;;17.83;54.09
25156;BME280;71253;51.496;7.606;2023-07-02T19:18:44;99583.97;;;17.86;54.93
25156;BME280;71253;51.496;7.606;2023-07-02T19:23:47;99575.78;;;17.95;55.33
25156;BME280;71253;51.496;7.606;2023-07-02T19:28:49;99581.97;;;17.93;56.05
25156;BME280;71253;51.496;7.606;2023-07-02T19:33:51;99580.00;;;17.76;55.59
25156;BME280;71253;51.496;7.606;2023-07-02T19:38:52;99590.56;;;17.48;58.32
25156;BME280;71253;51.496;7.606;2023-07-02T19:43:54;99577.22;;;17.30;56.46
25156;BME280;71253;51.496;7.606;2023-07-02T19:48:56;99590.16;;;17.35;54.78
25156;BME280;71253;51.496;7.606;2023-07-02T19:53:58;99597.94;;;17.37;55.96
25156;BME280;71253;51.496;7.606;2023-07-02T19:59:00;99604.94;;;17.36;54.82
25156;BME280;71253;51.496;7.606;2023-07-02T20:04:03;99601.47;;;17.35;54.87
25156;BME280;71253;51.496;7.606;2023-07-02T20:09:06;99608.69;;;17.27;55.44
25156;BME280;71253;51.496;7.606;2023-07-02T20:14:08;99602.91;;;17.18;55.32
25156;BME280;71253;51.496;7.606;2023-07-02T20:19:10;99609.34;;;17.09;56.30
25156;BME280;71253;51.496;7.606;2023-07-02T20:24:12;99616.97;;;17.15;58.87
25156;BME280;71253;51.496;7.606;2023-07-02T20:29:14;99610.09;;;16.86;61.08
25156;BME280;71253;51.496;7.606;2023-07-02T20:34:17;99611.09;;;16.54;59.06
25156;BME280;71253;51.496;7.606;2023-07-02T20:39:22;99613.97;;;16.45;58.58
25156;BME280;71253;51.496;7.606;2023-07-02T20:44:23;99610.44;;;16.46;58.81
25156;BME280;71253;51.496;7.606;2023-07-02T20:49:26;99602.66;;;16.44;59.50
25156;BME280;71253;51.496;7.606;2023-07-02T20:54:27;99612.00;;;16.51;59.09
25156;BME280;71253;51.496;7.606;2023-07-02T20:59:29;99617.50;;;16.14;62.30
25156;BME280;71253;51.496;7.606;2023-07-02T21:04:31;99625.91;;;15.94;63.62
25156;BME280;71253;51.496;7.606;2023-07-02T21:09:32;99622.16;;;15.73;61.74
25156;BME280;71253;51.496;7.606;2023-07-02T21:14:34;99630.09;;;15.69;62.76
25156;BME280;71253;51.496;7.606;2023-07-02T21:19:37;99638.00;;;15.97;63.55
25156;BME280;71253;51.496;7.606;2023-07-02T21:24:38;99641.69;;;15.90;64.95
25156;BME280;71253;51.496;7.606;2023-07-02T21:29:40;99651.63;;;15.77;63.25
25156;BME280;71253;51.496;7.606;2023-07-02T21:34:42;99649.56;;;15.54;64.16
25156;BME280;71253;51.496;7.606;2023-07-02T21:39:44;99652.22;;;15.52;63.31
25156;BME280;71253;51.496;7.606;2023-07-02T21:44:45;99649.38;;;15.29;63.73
25156;BME280;71253;51.496;7.606;2023-07-02T21:49:47;99636.72;;;15.14;63.80
25156;BME280;71253;51.496;7.606;2023-07-02T21:54:49;99642.25;;;15.00;64.47
25156;BME280;71253;51.496;7.606;2023-07-02T21:59:52;99650.56;;;14.79;69.82
25156;BME280;71253;51.496;7.606;2023-07-02T22:04:54;99645.53;;;14.32;71.49
25156;BME280;71253;51.496;7.606;2023-07-02T22:09:56;99639.53;;;13.85;72.46
25156;BME280;71253;51.496;7.606;2023-07-02T22:14:58;99641.63;;;13.68;71.04
25156;BME280;71253;51.496;7.606;2023-07-02T22:20:02;99639.50;;;13.88;68.39
25156;BME280;71253;51.496;7.606;2023-07-02T22:25:07;99645.44;;;13.95;69.91
25156;BME280;71253;51.496;7.606;2023-07-02T22:30:11;99632.78;;;14.18;65.90
25156;BME280;71253;51.496;7.606;2023-07-02T22:35:13;99636.09;;;14.27;66.41
25156;BME280;71253;51.496;7.606;2023-07-02T22:40:16;99621.88;;;14.43;65.29
25156;BME280;71253;51.496;7.606;2023-07-02T22:45:18;99626.72;;;14.60;65.78
25156;BME280;71253;51.496;7.606;2023-07-02T22:50:20;99626.78;;;14.94;61.79
25156;BME280;71253;51.496;7.606;2023-07-02T22:55:28;99623.91;;;15.06;62.14
25156;BME280;71253;51.496;7.606;2023-07-02T23:00:29;99627.50;;;15.01;63.12
25156;BME280;71253;51.496;7.606;2023-07-02T23:05:31;99619.25;;;14.82;64.31
25156;BME280;71253;51.496;7.606;2023-07-02T23:10:33;99617.31;;;14.91;62.71
25156;BME280;71253;51.496;7.606;2023-07-02T23:15:36;99617.69;;;15.10;61.67
25156;BME280;71253;51.496;7.606;2023-07-02T23:20:38;99611.94;;;15.32;60.84
25156;BME280;71253;51.496;7.606;2023-07-02T23:25:41;99619.75;;;15.32;61.20
25156;BME280;71253;51.496;7.606;2023-07-02T23:30:43;99618.09;;;15.27;61.91
25156;BME280;71253;51.496;7.606;2023-07-02T23:35:45;99612.91;;;15.27;61.85
25156;BME280;71253;51.496;7.606;2023-07-02T23:40:48;99605.69;;;15.39;59.72
25156;BME280;71253;51.496;7.606;2023-07-02T23:45:49;99600.25;;;15.14;60.86
25156;BME280;71253;51.496;7.606;2023-07-02T23:50:51;99602.22;;;15.04;59.46
25156;BME280;71253;51.496;7.606;2023-07-02T23:55:53;99609.19;;;15.04;58.54
